• Join FlightAware (Why Join?)
  • Login
  • US Flag 
06:24AM EDT


 

Airport Tracker/Info


-or-


 

Live Flight TrackerFlight Track Log ✈ ASQ5717 ✈ 14-Apr-2013 ✈ KBTV - KIAD

Flight Track Log - Related Links

Times and Time Zones

All times are in EDT time to prevent confusion due to time zone crossing. See the ASQ5717 flight status page for this flight to view local times or setup timezone preferences in your user account.

Time Position Orientation Groundspeed Altitude Reporting Facility
EDT Latitude Longitude Course Direction KTS MPH feet Rate Location/Type
05:41AM 44.2057 -73.2444 196° South  Level FlightAware Approximate
05:42AM 44.1191 -73.2791 196° South  Level FlightAware Approximate
05:42AM 44.2714 -73.1939 195° South 276 318 8,900  Level Boston Center
05:43AM 44.0324 -73.3138 196° South  Level FlightAware Approximate
05:43AM 44.1961 -73.2247 196° South 281 323 11,300  Level Boston Center
05:44AM 43.9457 -73.3484 196° South  Level FlightAware Approximate
05:44AM 44.1189 -73.2586 197° South 286 329 13,300  Level Boston Center
05:45AM 43.8588 -73.3819 195° South  Level FlightAware Approximate
05:45AM 44.0353 -73.2919 196° South 303 349 14,900  Level Boston Center
05:46AM 43.7717 -73.4141 195° South  Level FlightAware Approximate
05:46AM 43.9369 -73.3308 196° South 325 374 16,500  Level Boston Center
05:47AM 43.6845 -73.4462 195° South  Level FlightAware Approximate
05:47AM 43.8472 -73.3669 196° South 335 386 18,200  Level Boston Center
05:48AM 43.7550 -73.4058 197° South 340 391 20,100 1,740 Climbing Boston Center
05:49AM 43.6778 -73.4361 196° South 340 391 21,700 1,500 Climbing Boston Center
05:50AM 43.5878 -73.4719 196° South 340 391 23,200 1,260 Climbing Boston Center
05:51AM 43.4978 -73.5047 195° South 340 391 24,300 960 Climbing Boston Center
05:52AM 43.4039 -73.5431 197° South 345 397 25,200 900 Climbing Boston Center
05:53AM 43.3075 -73.5814 196° South 351 404 26,100 840 Climbing Boston Center
05:54AM 43.2114 -73.6194 196° South 358 412 26,900 660 Climbing Boston Center
05:55AM 43.1025 -73.6628 196° South 363 418 27,500 600 Climbing Boston Center
05:56AM 43.0000 -73.7033 196° South 375 432 28,100 540 Climbing Boston Center
05:57AM 42.8972 -73.7467 197° South 380 437 28,600 480 Climbing Boston Center
05:58AM 42.7947 -73.7842 195° South 380 437 29,100 480 Climbing Boston Center
05:59AM 42.6942 -73.8300 199° South 380 437 29,600 420 Climbing Boston Center
06:00AM 42.6103 -73.8675 198° South 385 443 30,000 180 Climbing Boston Center
06:01AM 42.4908 -73.9239 199° South 385 443 30,000  Level Boston Center
06:02AM 42.3839 -73.9719 198° South 391 450 30,000  Level Boston Center
06:03AM 42.2789 -74.0172 198° South 397 457 30,000  Level Boston Center
06:04AM 42.1703 -74.0425 190° South 402 463 30,000  Level Boston Center
06:05AM 42.0636 -74.0619 188° South 402 463 30,000  Level Boston Center
06:06AM 41.9650 -74.1097 200° South 389 448 30,000  Level Boston Center
06:08AM 41.7403 -74.2097 198° South 408 470 30,000  Level New York Center
06:09AM 41.6306 -74.2625 200° South 414 476 30,000  Level New York Center
06:10AM 41.5378 -74.3075 200° South 414 476 30,000  Level New York Center
06:11AM 41.4281 -74.3542 198° South 409 471 30,000 -240 Level New York Center
06:12AM 41.3139 -74.4089 200° South 422 486 29,600 -540 Descending New York Center
06:13AM 41.1956 -74.4603 198° South 443 510 29,000 -600 Descending New York Center
06:14AM 41.0794 -74.5117 198° South 450 518 28,500 -540 Descending New York Center
06:15AM 40.9567 -74.5708 200° South 444 511 28,000 -300 Descending New York Center
06:16AM 40.8789 -74.6544 219° Southwest 417 480 28,000  Level New York Center
06:17AM 40.8231 -74.7719 238° Southwest 387 445 28,000  Level New York Center
06:18AM 40.7689 -74.8919 239° Southwest 387 445 28,000  Level New York Center
06:19AM 40.7144 -75.0147 240° Southwest 387 445 28,000  Level New York Center
06:20AM 40.6603 -75.1317 239° Southwest 387 445 28,000  Level New York Center
06:21AM 40.6033 -75.2592 240° Southwest 387 445 28,000  Level New York Center
06:22AM 40.5486 -75.3786 239° Southwest 387 445 28,000 -360 Level New York Center
06:23AM 40.4919 -75.4975 238° Southwest 387 445 27,300 -1,680 Descending New York Center
06:24AM 40.4392 -75.6139 239° Southwest 387 445 24,700 -2,640 Descending New York Center
06:25AM 40.3844 -75.7328 239° Southwest 387 445 22,100 -2,400 Descending New York Center
06:26AM 40.3336 -75.8461 240° Southwest 380 437 20,000 -1,080 Descending New York Center
06:27AM 40.2697 -75.9722 236° Southwest 380 437 20,000 -420 Level New York Center
06:28AM 40.2169 -76.0850 239° Southwest 375 432 19,200 -900 Descending New York Center
06:29AM 40.1731 -76.1794 239° Southwest 360 414 18,200 -1,020 Descending New York Center
06:30AM 40.1175 -76.2975 238° Southwest 350 403 17,200 -1,020 Descending New York Center
06:31AM 40.0686 -76.4047 239° Southwest 350 403 16,200 -720 Descending New York Center
06:33AM 39.9500 -76.6500 238° Southwest 360 414 15,000 -300 Descending Potomac TRACON
06:35AM 39.8923 -76.7716 238° Southwest  Level FlightAware Approximate
06:35AM 39.8500 -76.8667 238° Southwest 312 359 15,000  Level Potomac TRACON
06:36AM 39.8167 -76.9333 237° Southwest 258 297 14,400 -780 Descending Potomac TRACON
06:37AM 39.7833 -77.0167 243° Southwest 254 292 13,600 -900 Descending Potomac TRACON
06:38AM 39.7500 -77.0833 237° Southwest 256 295 12,800 -900 Descending Potomac TRACON
06:39AM 39.7167 -77.1667 243° Southwest 260 299 11,900 -900 Descending Potomac TRACON
06:40AM 39.6833 -77.2500 243° Southwest 254 292 11,000 -960 Descending Potomac TRACON
06:41AM 39.6500 -77.3167 237° Southwest 245 282 10,100 -660 Descending Potomac TRACON
06:42AM 39.5667 -77.3500 197° South 299 344 9,800 -900 Descending Potomac TRACON
06:43AM 39.4833 -77.3500 180° South 293 337 8,300 -1,440 Descending Potomac TRACON
06:44AM 39.4167 -77.3667 191° South 275 316 7,100 -1,140 Descending Potomac TRACON
06:45AM 39.3500 -77.3667 180° South 269 310 6,300 -1,020 Descending Potomac TRACON
06:46AM 39.2833 -77.3667 180° South 249 287 5,300 -900 Descending Potomac TRACON
06:47AM 39.2167 -77.3667 180° South 233 268 4,600 -660 Descending Potomac TRACON
06:48AM 39.1667 -77.3667 180° South 224 258 4,000 -360 Descending Potomac TRACON
06:49AM 39.1000 -77.3500 169° South 232 267 4,000  Level Potomac TRACON
06:50AM 39.0500 -77.3667 195° South 224 258 4,000  Level Potomac TRACON
06:51AM 38.9833 -77.3667 180° South 240 276 4,000  Level Potomac TRACON
06:52AM 38.9167 -77.3667 180° South 233 268 4,000  Level Potomac TRACON
06:53AM 38.8500 -77.3667 180° South 228 262 4,000 -480 Level Potomac TRACON
06:54AM 38.7833 -77.3667 180° South 223 257 3,100 -540 Descending Potomac TRACON
06:55AM 38.7500 -77.4000 218° Southwest 200 230 3,000 -60 Descending Potomac TRACON
06:55AM 38.7833 -77.4333 322° Northwest 179 206 3,000  Level Potomac TRACON